sensor_id;sensor_type;location;lat;lon;timestamp;P1;durP1;ratioP1;P2;durP2;ratioP2
12474;SDS011;6302;42.624;23.334;2023-05-07T00:02:17;5.13;;;4.60;;
12474;SDS011;6302;42.624;23.334;2023-05-07T00:04:44;5.60;;;4.37;;
12474;SDS011;6302;42.624;23.334;2023-05-07T00:07:11;6.30;;;4.40;;
12474;SDS011;6302;42.624;23.334;2023-05-07T00:09:38;5.70;;;4.67;;
12474;SDS011;6302;42.624;23.334;2023-05-07T00:12:05;5.43;;;4.50;;
12474;SDS011;6302;42.624;23.334;2023-05-07T00:14:32;6.87;;;4.50;;
12474;SDS011;6302;42.624;23.334;2023-05-07T00:16:59;5.53;;;4.80;;
12474;SDS011;6302;42.624;23.334;2023-05-07T00:19:27;5.83;;;5.23;;
12474;SDS011;6302;42.624;23.334;2023-05-07T00:21:53;5.67;;;5.17;;
12474;SDS011;6302;42.624;23.334;2023-05-07T00:24:21;5.70;;;5.10;;
12474;SDS011;6302;42.624;23.334;2023-05-07T00:26:47;7.13;;;5.50;;
12474;SDS011;6302;42.624;23.334;2023-05-07T00:29:14;6.33;;;5.57;;
12474;SDS011;6302;42.624;23.334;2023-05-07T00:31:41;6.20;;;5.60;;
12474;SDS011;6302;42.624;23.334;2023-05-07T00:34:08;6.73;;;5.80;;
12474;SDS011;6302;42.624;23.334;2023-05-07T00:36:36;7.00;;;6.30;;
12474;SDS011;6302;42.624;23.334;2023-05-07T00:39:03;6.00;;;5.40;;
12474;SDS011;6302;42.624;23.334;2023-05-07T00:41:29;5.83;;;5.10;;
12474;SDS011;6302;42.624;23.334;2023-05-07T00:43:56;7.03;;;5.00;;
12474;SDS011;6302;42.624;23.334;2023-05-07T00:46:23;6.47;;;5.87;;
12474;SDS011;6302;42.624;23.334;2023-05-07T00:48:50;6.20;;;5.60;;
12474;SDS011;6302;42.624;23.334;2023-05-07T00:51:18;5.50;;;4.90;;
12474;SDS011;6302;42.624;23.334;2023-05-07T00:53:47;5.87;;;5.33;;
12474;SDS011;6302;42.624;23.334;2023-05-07T00:56:14;5.70;;;5.20;;
12474;SDS011;6302;42.624;23.334;2023-05-07T00:58:41;7.23;;;5.20;;
12474;SDS011;6302;42.624;23.334;2023-05-07T01:01:08;5.70;;;5.20;;
12474;SDS011;6302;42.624;23.334;2023-05-07T01:03:35;8.70;;;5.47;;
12474;SDS011;6302;42.624;23.334;2023-05-07T01:06:01;6.03;;;5.50;;
12474;SDS011;6302;42.624;23.334;2023-05-07T01:08:29;9.40;;;5.63;;
12474;SDS011;6302;42.624;23.334;2023-05-07T01:10:58;5.77;;;5.17;;
12474;SDS011;6302;42.624;23.334;2023-05-07T01:13:26;6.90;;;5.57;;
12474;SDS011;6302;42.624;23.334;2023-05-07T01:15:54;6.40;;;4.93;;
12474;SDS011;6302;42.624;23.334;2023-05-07T01:18:20;6.83;;;5.27;;
12474;SDS011;6302;42.624;23.334;2023-05-07T01:20:48;6.53;;;5.63;;
12474;SDS011;6302;42.624;23.334;2023-05-07T01:23:16;7.43;;;5.53;;
12474;SDS011;6302;42.624;23.334;2023-05-07T01:25:50;9.07;;;7.73;;
12474;SDS011;6302;42.624;23.334;2023-05-07T01:28:17;9.27;;;7.17;;
12474;SDS011;6302;42.624;23.334;2023-05-07T01:30:44;9.53;;;7.23;;
12474;SDS011;6302;42.624;23.334;2023-05-07T01:33:14;8.43;;;6.30;;
12474;SDS011;6302;42.624;23.334;2023-05-07T01:35:45;8.17;;;6.07;;
12474;SDS011;6302;42.624;23.334;2023-05-07T01:38:16;8.17;;;5.00;;
12474;SDS011;6302;42.624;23.334;2023-05-07T01:40:45;6.53;;;5.53;;
12474;SDS011;6302;42.624;23.334;2023-05-07T01:43:11;7.00;;;4.70;;
12474;SDS011;6302;42.624;23.334;2023-05-07T01:45:38;5.17;;;4.70;;
12474;SDS011;6302;42.624;23.334;2023-05-07T01:48:06;7.63;;;4.80;;
12474;SDS011;6302;42.624;23.334;2023-05-07T01:50:34;5.23;;;4.73;;
12474;SDS011;6302;42.624;23.334;2023-05-07T01:53:03;5.53;;;5.00;;
12474;SDS011;6302;42.624;23.334;2023-05-07T01:55:31;5.90;;;5.23;;
12474;SDS011;6302;42.624;23.334;2023-05-07T01:57:58;7.57;;;5.13;;
12474;SDS011;6302;42.624;23.334;2023-05-07T02:00:25;5.13;;;4.73;;
12474;SDS011;6302;42.624;23.334;2023-05-07T02:02:52;6.77;;;4.90;;
12474;SDS011;6302;42.624;23.334;2023-05-07T02:05:19;6.77;;;5.30;;
12474;SDS011;6302;42.624;23.334;2023-05-07T02:07:46;5.43;;;4.97;;
12474;SDS011;6302;42.624;23.334;2023-05-07T02:10:12;6.57;;;4.90;;
12474;SDS011;6302;42.624;23.334;2023-05-07T02:12:40;5.83;;;5.03;;
12474;SDS011;6302;42.624;23.334;2023-05-07T02:15:08;6.10;;;5.50;;
12474;SDS011;6302;42.624;23.334;2023-05-07T02:17:38;5.40;;;4.90;;
12474;SDS011;6302;42.624;23.334;2023-05-07T02:20:24;5.53;;;5.03;;
12474;SDS011;6302;42.624;23.334;2023-05-07T02:22:50;8.10;;;5.37;;
12474;SDS011;6302;42.624;23.334;2023-05-07T02:25:17;5.77;;;5.10;;
12474;SDS011;6302;42.624;23.334;2023-05-07T02:27:45;6.67;;;5.50;;
12474;SDS011;6302;42.624;23.334;2023-05-07T02:30:13;6.60;;;5.23;;
12474;SDS011;6302;42.624;23.334;2023-05-07T02:32:40;6.33;;;5.20;;
12474;SDS011;6302;42.624;23.334;2023-05-07T02:35:07;4.93;;;4.47;;
12474;SDS011;6302;42.624;23.334;2023-05-07T02:37:34;6.53;;;5.03;;
12474;SDS011;6302;42.624;23.334;2023-05-07T02:40:01;6.73;;;4.80;;
12474;SDS011;6302;42.624;23.334;2023-05-07T02:42:29;6.63;;;5.50;;
12474;SDS011;6302;42.624;23.334;2023-05-07T02:44:57;6.17;;;5.57;;
12474;SDS011;6302;42.624;23.334;2023-05-07T02:47:24;5.97;;;5.37;;
12474;SDS011;6302;42.624;23.334;2023-05-07T02:49:53;8.77;;;5.50;;
12474;SDS011;6302;42.624;23.334;2023-05-07T02:52:20;6.03;;;5.43;;
12474;SDS011;6302;42.624;23.334;2023-05-07T02:54:47;5.90;;;5.40;;
12474;SDS011;6302;42.624;23.334;2023-05-07T02:57:14;5.97;;;5.37;;
12474;SDS011;6302;42.624;23.334;2023-05-07T02:59:41;6.70;;;5.93;;
12474;SDS011;6302;42.624;23.334;2023-05-07T03:02:09;6.97;;;6.23;;
12474;SDS011;6302;42.624;23.334;2023-05-07T03:04:36;8.20;;;7.40;;
12474;SDS011;6302;42.624;23.334;2023-05-07T03:07:03;8.90;;;6.47;;
12474;SDS011;6302;42.624;23.334;2023-05-07T03:09:29;7.10;;;6.40;;
12474;SDS011;6302;42.624;23.334;2023-05-07T03:11:56;7.03;;;6.33;;
12474;SDS011;6302;42.624;23.334;2023-05-07T03:14:23;9.17;;;6.90;;
12474;SDS011;6302;42.624;23.334;2023-05-07T03:16:50;7.70;;;6.90;;
12474;SDS011;6302;42.624;23.334;2023-05-07T03:19:18;7.63;;;6.50;;
12474;SDS011;6302;42.624;23.334;2023-05-07T03:21:45;10.53;;;6.73;;
12474;SDS011;6302;42.624;23.334;2023-05-07T03:24:12;9.60;;;7.30;;
12474;SDS011;6302;42.624;23.334;2023-05-07T03:26:39;8.67;;;7.60;;
12474;SDS011;6302;42.624;23.334;2023-05-07T03:29:05;8.40;;;6.97;;
12474;SDS011;6302;42.624;23.334;2023-05-07T03:31:32;7.20;;;6.50;;
12474;SDS011;6302;42.624;23.334;2023-05-07T03:33:59;7.87;;;6.57;;
12474;SDS011;6302;42.624;23.334;2023-05-07T03:36:28;8.10;;;6.80;;
12474;SDS011;6302;42.624;23.334;2023-05-07T03:38:54;8.43;;;6.93;;
12474;SDS011;6302;42.624;23.334;2023-05-07T03:41:21;6.77;;;6.17;;
12474;SDS011;6302;42.624;23.334;2023-05-07T03:43:48;8.33;;;7.03;;
12474;SDS011;6302;42.624;23.334;2023-05-07T03:46:15;7.80;;;7.00;;
12474;SDS011;6302;42.624;23.334;2023-05-07T03:48:42;7.60;;;6.90;;
12474;SDS011;6302;42.624;23.334;2023-05-07T03:51:08;9.47;;;7.13;;
12474;SDS011;6302;42.624;23.334;2023-05-07T03:53:36;9.03;;;7.87;;
12474;SDS011;6302;42.624;23.334;2023-05-07T03:56:03;7.00;;;6.30;;
12474;SDS011;6302;42.624;23.334;2023-05-07T03:58:30;7.70;;;6.87;;
12474;SDS011;6302;42.624;23.334;2023-05-07T04:00:57;8.63;;;7.37;;
12474;SDS011;6302;42.624;23.334;2023-05-07T04:03:24;12.40;;;7.47;;
12474;SDS011;6302;42.624;23.334;2023-05-07T04:05:50;7.30;;;6.60;;
12474;SDS011;6302;42.624;23.334;2023-05-07T04:08:17;7.93;;;6.93;;
12474;SDS011;6302;42.624;23.334;2023-05-07T04:10:45;8.57;;;7.00;;
12474;SDS011;6302;42.624;23.334;2023-05-07T04:13:12;7.53;;;6.73;;
12474;SDS011;6302;42.624;23.334;2023-05-07T04:15:39;10.20;;;7.47;;
12474;SDS011;6302;42.624;23.334;2023-05-07T04:18:06;9.27;;;7.83;;
12474;SDS011;6302;42.624;23.334;2023-05-07T04:20:33;9.80;;;8.27;;
12474;SDS011;6302;42.624;23.334;2023-05-07T04:23:01;10.07;;;8.00;;
12474;SDS011;6302;42.624;23.334;2023-05-07T04:25:28;13.57;;;8.97;;
12474;SDS011;6302;42.624;23.334;2023-05-07T04:27:57;9.93;;;7.87;;
12474;SDS011;6302;42.624;23.334;2023-05-07T04:30:23;11.77;;;7.93;;
12474;SDS011;6302;42.624;23.334;2023-05-07T04:32:50;9.27;;;8.13;;
12474;SDS011;6302;42.624;23.334;2023-05-07T04:35:17;9.70;;;8.67;;
12474;SDS011;6302;42.624;23.334;2023-05-07T04:37:44;9.40;;;8.23;;
12474;SDS011;6302;42.624;23.334;2023-05-07T04:40:11;9.87;;;8.30;;
12474;SDS011;6302;42.624;23.334;2023-05-07T04:42:38;9.13;;;8.17;;
12474;SDS011;6302;42.624;23.334;2023-05-07T04:45:07;11.57;;;9.13;;
12474;SDS011;6302;42.624;23.334;2023-05-07T04:47:35;10.70;;;9.17;;
12474;SDS011;6302;42.624;23.334;2023-05-07T04:50:02;11.27;;;8.43;;
12474;SDS011;6302;42.624;23.334;2023-05-07T04:52:29;13.93;;;9.33;;
12474;SDS011;6302;42.624;23.334;2023-05-07T04:54:56;10.30;;;8.63;;
12474;SDS011;6302;42.624;23.334;2023-05-07T04:57:25;10.07;;;8.47;;
12474;SDS011;6302;42.624;23.334;2023-05-07T04:59:52;10.13;;;9.07;;
12474;SDS011;6302;42.624;23.334;2023-05-07T05:02:20;10.33;;;9.00;;
12474;SDS011;6302;42.624;23.334;2023-05-07T05:04:47;9.73;;;8.83;;
12474;SDS011;6302;42.624;23.334;2023-05-07T05:07:14;9.73;;;8.73;;
12474;SDS011;6302;42.624;23.334;2023-05-07T05:09:41;12.00;;;8.90;;
12474;SDS011;6302;42.624;23.334;2023-05-07T05:12:08;9.97;;;8.70;;
12474;SDS011;6302;42.624;23.334;2023-05-07T05:14:34;9.17;;;8.27;;
12474;SDS011;6302;42.624;23.334;2023-05-07T05:17:01;9.80;;;8.20;;
12474;SDS011;6302;42.624;23.334;2023-05-07T05:19:29;9.13;;;8.13;;
12474;SDS011;6302;42.624;23.334;2023-05-07T05:21:56;10.83;;;7.97;;
12474;SDS011;6302;42.624;23.334;2023-05-07T05:24:23;9.63;;;7.73;;
12474;SDS011;6302;42.624;23.334;2023-05-07T05:26:49;9.33;;;8.10;;
12474;SDS011;6302;42.624;23.334;2023-05-07T05:29:19;10.67;;;8.23;;
12474;SDS011;6302;42.624;23.334;2023-05-07T05:31:46;9.93;;;7.20;;
12474;SDS011;6302;42.624;23.334;2023-05-07T05:34:13;9.37;;;7.97;;
12474;SDS011;6302;42.624;23.334;2023-05-07T05:36:41;8.70;;;7.90;;
12474;SDS011;6302;42.624;23.334;2023-05-07T05:39:08;8.63;;;7.63;;
12474;SDS011;6302;42.624;23.334;2023-05-07T05:41:35;8.47;;;7.53;;
12474;SDS011;6302;42.624;23.334;2023-05-07T05:44:01;11.60;;;8.40;;
12474;SDS011;6302;42.624;23.334;2023-05-07T05:46:28;12.70;;;8.13;;
12474;SDS011;6302;42.624;23.334;2023-05-07T05:48:55;11.67;;;8.80;;
12474;SDS011;6302;42.624;23.334;2023-05-07T05:51:22;9.07;;;8.07;;
12474;SDS011;6302;42.624;23.334;2023-05-07T05:53:50;8.63;;;7.73;;
12474;SDS011;6302;42.624;23.334;2023-05-07T05:56:17;8.90;;;8.07;;
12474;SDS011;6302;42.624;23.334;2023-05-07T05:58:44;11.80;;;8.13;;
12474;SDS011;6302;42.624;23.334;2023-05-07T06:01:12;10.60;;;8.73;;
12474;SDS011;6302;42.624;23.334;2023-05-07T06:03:39;9.70;;;8.60;;
12474;SDS011;6302;42.624;23.334;2023-05-07T06:06:05;9.47;;;8.10;;
12474;SDS011;6302;42.624;23.334;2023-05-07T06:08:32;8.53;;;7.63;;
12474;SDS011;6302;42.624;23.334;2023-05-07T06:11:00;8.53;;;7.57;;
12474;SDS011;6302;42.624;23.334;2023-05-07T06:13:28;10.10;;;7.30;;
12474;SDS011;6302;42.624;23.334;2023-05-07T06:15:55;14.37;;;8.23;;
12474;SDS011;6302;42.624;23.334;2023-05-07T06:18:22;8.53;;;7.73;;
12474;SDS011;6302;42.624;23.334;2023-05-07T06:20:48;11.50;;;8.07;;
12474;SDS011;6302;42.624;23.334;2023-05-07T06:23:15;9.57;;;7.30;;
12474;SDS011;6302;42.624;23.334;2023-05-07T06:25:42;10.33;;;8.10;;
12474;SDS011;6302;42.624;23.334;2023-05-07T06:28:13;7.43;;;6.73;;
12474;SDS011;6302;42.624;23.334;2023-05-07T06:30:40;8.33;;;7.53;;
12474;SDS011;6302;42.624;23.334;2023-05-07T06:33:07;7.90;;;6.97;;
12474;SDS011;6302;42.624;23.334;2023-05-07T06:35:33;9.60;;;7.90;;
12474;SDS011;6302;42.624;23.334;2023-05-07T06:38:00;8.10;;;7.33;;
12474;SDS011;6302;42.624;23.334;2023-05-07T06:40:27;7.43;;;6.73;;
12474;SDS011;6302;42.624;23.334;2023-05-07T06:42:54;7.07;;;6.37;;
12474;SDS011;6302;42.624;23.334;2023-05-07T06:45:22;7.50;;;6.77;;
12474;SDS011;6302;42.624;23.334;2023-05-07T06:47:50;8.40;;;7.60;;
12474;SDS011;6302;42.624;23.334;2023-05-07T06:50:17;7.97;;;6.73;;
12474;SDS011;6302;42.624;23.334;2023-05-07T06:52:43;9.80;;;6.63;;
12474;SDS011;6302;42.624;23.334;2023-05-07T06:55:10;7.27;;;6.53;;
12474;SDS011;6302;42.624;23.334;2023-05-07T06:57:37;6.43;;;5.63;;
12474;SDS011;6302;42.624;23.334;2023-05-07T07:00:05;7.17;;;5.93;;
12474;SDS011;6302;42.624;23.334;2023-05-07T07:02:36;6.57;;;5.90;;
12474;SDS011;6302;42.624;23.334;2023-05-07T07:05:03;6.87;;;6.17;;
12474;SDS011;6302;42.624;23.334;2023-05-07T07:07:30;7.00;;;5.53;;
12474;SDS011;6302;42.624;23.334;2023-05-07T07:09:56;7.07;;;5.87;;
12474;SDS011;6302;42.624;23.334;2023-05-07T07:12:23;7.80;;;5.50;;
12474;SDS011;6302;42.624;23.334;2023-05-07T07:14:51;5.97;;;5.37;;
12474;SDS011;6302;42.624;23.334;2023-05-07T07:17:17;7.20;;;5.93;;
12474;SDS011;6302;42.624;23.334;2023-05-07T07:19:46;6.83;;;5.53;;
12474;SDS011;6302;42.624;23.334;2023-05-07T07:22:12;6.80;;;5.80;;
12474;SDS011;6302;42.624;23.334;2023-05-07T07:24:39;7.30;;;6.03;;
12474;SDS011;6302;42.624;23.334;2023-05-07T07:27:06;9.97;;;6.03;;
12474;SDS011;6302;42.624;23.334;2023-05-07T07:29:33;6.17;;;5.57;;
12474;SDS011;6302;42.624;23.334;2023-05-07T07:31:59;5.90;;;5.13;;
12474;SDS011;6302;42.624;23.334;2023-05-07T07:34:26;5.67;;;4.73;;
12474;SDS011;6302;42.624;23.334;2023-05-07T07:36:54;5.80;;;5.20;;
12474;SDS011;6302;42.624;23.334;2023-05-07T07:39:21;6.00;;;5.00;;
12474;SDS011;6302;42.624;23.334;2023-05-07T07:41:48;7.30;;;5.10;;
12474;SDS011;6302;42.624;23.334;2023-05-07T07:44:15;6.60;;;4.90;;
12474;SDS011;6302;42.624;23.334;2023-05-07T07:46:42;7.77;;;4.57;;
12474;SDS011;6302;42.624;23.334;2023-05-07T07:49:09;5.17;;;4.60;;
12474;SDS011;6302;42.624;23.334;2023-05-07T07:51:35;5.43;;;4.93;;
12474;SDS011;6302;42.624;23.334;2023-05-07T07:54:04;5.77;;;5.17;;
12474;SDS011;6302;42.624;23.334;2023-05-07T07:56:31;7.67;;;4.60;;
12474;SDS011;6302;42.624;23.334;2023-05-07T07:58:59;4.63;;;4.07;;
12474;SDS011;6302;42.624;23.334;2023-05-07T08:01:26;5.90;;;4.53;;
12474;SDS011;6302;42.624;23.334;2023-05-07T08:03:53;5.97;;;4.90;;
12474;SDS011;6302;42.624;23.334;2023-05-07T08:06:19;6.63;;;5.30;;
12474;SDS011;6302;42.624;23.334;2023-05-07T08:08:46;5.77;;;5.27;;
12474;SDS011;6302;42.624;23.334;2023-05-07T08:11:14;7.20;;;6.03;;
12474;SDS011;6302;42.624;23.334;2023-05-07T08:13:41;7.57;;;6.20;;
12474;SDS011;6302;42.624;23.334;2023-05-07T08:16:08;6.40;;;5.80;;
12474;SDS011;6302;42.624;23.334;2023-05-07T08:18:35;6.70;;;5.60;;
12474;SDS011;6302;42.624;23.334;2023-05-07T08:21:02;6.77;;;6.07;;
12474;SDS011;6302;42.624;23.334;2023-05-07T08:23:29;9.00;;;6.50;;
12474;SDS011;6302;42.624;23.334;2023-05-07T08:25:55;7.17;;;6.40;;
12474;SDS011;6302;42.624;23.334;2023-05-07T08:28:24;7.23;;;6.43;;
12474;SDS011;6302;42.624;23.334;2023-05-07T08:30:50;7.63;;;6.93;;
12474;SDS011;6302;42.624;23.334;2023-05-07T08:33:17;8.30;;;7.50;;
12474;SDS011;6302;42.624;23.334;2023-05-07T08:35:44;9.27;;;6.97;;
12474;SDS011;6302;42.624;23.334;2023-05-07T08:38:11;8.20;;;7.17;;
12474;SDS011;6302;42.624;23.334;2023-05-07T08:40:38;12.37;;;8.47;;
12474;SDS011;6302;42.624;23.334;2023-05-07T08:43:06;9.40;;;8.43;;
12474;SDS011;6302;42.624;23.334;2023-05-07T08:45:34;10.23;;;8.17;;
12474;SDS011;6302;42.624;23.334;2023-05-07T08:48:02;8.77;;;7.97;;
12474;SDS011;6302;42.624;23.334;2023-05-07T08:50:31;8.13;;;7.33;;
12474;SDS011;6302;42.624;23.334;2023-05-07T08:53:02;9.50;;;7.30;;
12474;SDS011;6302;42.624;23.334;2023-05-07T08:55:29;9.27;;;8.37;;
12474;SDS011;6302;42.624;23.334;2023-05-07T08:57:56;8.33;;;7.13;;
12474;SDS011;6302;42.624;23.334;2023-05-07T09:00:22;8.27;;;7.47;;
12474;SDS011;6302;42.624;23.334;2023-05-07T09:02:51;7.27;;;6.53;;
12474;SDS011;6302;42.624;23.334;2023-05-07T09:05:18;5.73;;;4.90;;
12474;SDS011;6302;42.624;23.334;2023-05-07T09:07:45;7.03;;;5.70;;
12474;SDS011;6302;42.624;23.334;2023-05-07T09:10:12;4.87;;;4.47;;
12474;SDS011;6302;42.624;23.334;2023-05-07T09:12:39;5.13;;;4.57;;
12474;SDS011;6302;42.624;23.334;2023-05-07T09:15:07;5.03;;;4.30;;
12474;SDS011;6302;42.624;23.334;2023-05-07T09:17:34;4.20;;;3.83;;
12474;SDS011;6302;42.624;23.334;2023-05-07T09:20:06;5.40;;;4.87;;
12474;SDS011;6302;42.624;23.334;2023-05-07T09:22:33;6.30;;;5.70;;
12474;SDS011;6302;42.624;23.334;2023-05-07T09:25:02;7.23;;;6.50;;
12474;SDS011;6302;42.624;23.334;2023-05-07T09:27:30;6.65;;;6.05;;
12474;SDS011;6302;42.624;23.334;2023-05-07T09:29:57;7.13;;;6.40;;
12474;SDS011;6302;42.624;23.334;2023-05-07T09:32:24;6.27;;;5.67;;
12474;SDS011;6302;42.624;23.334;2023-05-07T09:34:52;8.15;;;5.82;;
12474;SDS011;6302;42.624;23.334;2023-05-07T09:37:20;6.63;;;5.83;;
12474;SDS011;6302;42.624;23.334;2023-05-07T09:39:48;5.68;;;5.18;;
12474;SDS011;6302;42.624;23.334;2023-05-07T09:42:16;6.73;;;5.67;;
12474;SDS011;6302;42.624;23.334;2023-05-07T09:44:49;7.43;;;6.13;;
12474;SDS011;6302;42.624;23.334;2023-05-07T09:47:18;6.75;;;5.30;;
12474;SDS011;6302;42.624;23.334;2023-05-07T09:49:47;8.40;;;5.90;;
12474;SDS011;6302;42.624;23.334;2023-05-07T09:52:14;8.00;;;6.30;;
12474;SDS011;6302;42.624;23.334;2023-05-07T09:54:44;6.68;;;5.82;;
12474;SDS011;6302;42.624;23.334;2023-05-07T09:57:13;6.45;;;5.80;;
12474;SDS011;6302;42.624;23.334;2023-05-07T09:59:41;7.00;;;6.20;;
12474;SDS011;6302;42.624;23.334;2023-05-07T10:02:09;7.40;;;6.50;;
12474;SDS011;6302;42.624;23.334;2023-05-07T10:04:36;6.77;;;5.70;;
12474;SDS011;6302;42.624;23.334;2023-05-07T10:07:03;7.70;;;5.67;;
12474;SDS011;6302;42.624;23.334;2023-05-07T10:09:31;9.38;;;6.03;;
12474;SDS011;6302;42.624;23.334;2023-05-07T10:12:00;7.47;;;6.22;;
12474;SDS011;6302;42.624;23.334;2023-05-07T10:14:27;6.15;;;5.53;;
12474;SDS011;6302;42.624;23.334;2023-05-07T10:16:55;6.40;;;5.90;;
12474;SDS011;6302;42.624;23.334;2023-05-07T10:19:23;6.80;;;6.10;;
12474;SDS011;6302;42.624;23.334;2023-05-07T10:21:51;6.55;;;5.95;;
12474;SDS011;6302;42.624;23.334;2023-05-07T10:24:23;7.85;;;6.53;;
12474;SDS011;6302;42.624;23.334;2023-05-07T10:26:53;7.53;;;6.03;;
12474;SDS011;6302;42.624;23.334;2023-05-07T10:29:28;7.13;;;5.80;;
12474;SDS011;6302;42.624;23.334;2023-05-07T10:32:07;6.70;;;6.10;;
12474;SDS011;6302;42.624;23.334;2023-05-07T10:34:48;5.80;;;5.13;;
12474;SDS011;6302;42.624;23.334;2023-05-07T10:37:20;8.07;;;4.90;;
12474;SDS011;6302;42.624;23.334;2023-05-07T10:39:47;5.60;;;4.50;;
12474;SDS011;6302;42.624;23.334;2023-05-07T10:42:14;5.53;;;5.00;;
12474;SDS011;6302;42.624;23.334;2023-05-07T10:44:42;7.70;;;5.03;;
12474;SDS011;6302;42.624;23.334;2023-05-07T10:47:10;6.18;;;5.57;;
12474;SDS011;6302;42.624;23.334;2023-05-07T10:49:51;7.32;;;5.05;;
12474;SDS011;6302;42.624;23.334;2023-05-07T10:55:52;6.07;;;5.18;;
12474;SDS011;6302;42.624;23.334;2023-05-07T10:58:56;9.60;;;5.22;;
12474;SDS011;6302;42.624;23.334;2023-05-07T11:02:01;5.32;;;4.40;;
12474;SDS011;6302;42.624;23.334;2023-05-07T11:04:29;5.20;;;4.55;;
12474;SDS011;6302;42.624;23.334;2023-05-07T11:09:54;4.85;;;4.45;;
12474;SDS011;6302;42.624;23.334;2023-05-07T11:12:47;4.85;;;4.45;;
12474;SDS011;6302;42.624;23.334;2023-05-07T11:15:33;5.45;;;4.95;;
12474;SDS011;6302;42.624;23.334;2023-05-07T11:18:02;6.25;;;4.95;;
12474;SDS011;6302;42.624;23.334;2023-05-07T11:20:45;5.60;;;4.57;;
12474;SDS011;6302;42.624;23.334;2023-05-07T11:26:41;5.17;;;4.67;;
12474;SDS011;6302;42.624;23.334;2023-05-07T11:29:10;5.97;;;4.45;;
12474;SDS011;6302;42.624;23.334;2023-05-07T11:31:38;6.03;;;5.03;;
12474;SDS011;6302;42.624;23.334;2023-05-07T11:34:07;5.32;;;4.82;;
12474;SDS011;6302;42.624;23.334;2023-05-07T11:36:34;6.13;;;4.40;;
12474;SDS011;6302;42.624;23.334;2023-05-07T11:39:22;5.55;;;5.15;;
12474;SDS011;6302;42.624;23.334;2023-05-07T11:41:49;6.88;;;5.13;;
12474;SDS011;6302;42.624;23.334;2023-05-07T11:44:16;7.25;;;4.85;;
12474;SDS011;6302;42.624;23.334;2023-05-07T11:46:43;5.00;;;4.50;;
12474;SDS011;6302;42.624;23.334;2023-05-07T11:49:12;6.85;;;5.10;;
12474;SDS011;6302;42.624;23.334;2023-05-07T11:51:39;5.32;;;4.82;;
12474;SDS011;6302;42.624;23.334;2023-05-07T11:54:07;5.65;;;5.00;;
12474;SDS011;6302;42.624;23.334;2023-05-07T11:56:36;5.60;;;4.27;;
12474;SDS011;6302;42.624;23.334;2023-05-07T11:59:03;4.57;;;4.18;;
12474;SDS011;6302;42.624;23.334;2023-05-07T12:01:30;7.53;;;4.65;;
12474;SDS011;6302;42.624;23.334;2023-05-07T12:03:57;5.43;;;4.95;;
12474;SDS011;6302;42.624;23.334;2023-05-07T12:06:25;5.18;;;4.50;;
12474;SDS011;6302;42.624;23.334;2023-05-07T12:08:52;4.35;;;3.95;;
12474;SDS011;6302;42.624;23.334;2023-05-07T12:11:22;4.18;;;3.78;;
12474;SDS011;6302;42.624;23.334;2023-05-07T12:13:50;4.15;;;3.75;;
12474;SDS011;6302;42.624;23.334;2023-05-07T12:16:17;4.30;;;3.90;;
12474;SDS011;6302;42.624;23.334;2023-05-07T12:18:44;5.85;;;4.18;;
12474;SDS011;6302;42.624;23.334;2023-05-07T12:21:11;4.38;;;4.00;;
12474;SDS011;6302;42.624;23.334;2023-05-07T12:23:40;4.85;;;4.35;;
12474;SDS011;6302;42.624;23.334;2023-05-07T12:26:07;4.13;;;3.83;;
12474;SDS011;6302;42.624;23.334;2023-05-07T12:28:38;4.30;;;3.83;;
12474;SDS011;6302;42.624;23.334;2023-05-07T12:31:06;5.20;;;4.10;;
12474;SDS011;6302;42.624;23.334;2023-05-07T12:33:33;4.78;;;4.15;;
12474;SDS011;6302;42.624;23.334;2023-05-07T12:36:02;6.57;;;4.90;;
12474;SDS011;6302;42.624;23.334;2023-05-07T12:38:36;4.65;;;4.18;;
12474;SDS011;6302;42.624;23.334;2023-05-07T12:41:05;4.00;;;3.70;;
12474;SDS011;6302;42.624;23.334;2023-05-07T12:43:33;4.25;;;3.95;;
12474;SDS011;6302;42.624;23.334;2023-05-07T12:46:00;5.28;;;4.28;;
12474;SDS011;6302;42.624;23.334;2023-05-07T12:48:29;6.07;;;4.03;;
12474;SDS011;6302;42.624;23.334;2023-05-07T12:50:56;5.57;;;4.47;;
12474;SDS011;6302;42.624;23.334;2023-05-07T12:53:24;5.78;;;4.03;;
12474;SDS011;6302;42.624;23.334;2023-05-07T12:55:52;4.43;;;4.03;;
12474;SDS011;6302;42.624;23.334;2023-05-07T12:58:26;4.38;;;3.97;;
12474;SDS011;6302;42.624;23.334;2023-05-07T13:00:54;4.30;;;3.80;;
12474;SDS011;6302;42.624;23.334;2023-05-07T13:03:24;4.53;;;4.05;;
12474;SDS011;6302;42.624;23.334;2023-05-07T13:05:52;4.57;;;3.65;;
12474;SDS011;6302;42.624;23.334;2023-05-07T13:08:28;4.43;;;4.03;;
12474;SDS011;6302;42.624;23.334;2023-05-07T13:10:57;4.32;;;3.72;;
12474;SDS011;6302;42.624;23.334;2023-05-07T13:13:29;5.68;;;3.97;;
12474;SDS011;6302;42.624;23.334;2023-05-07T13:15:56;4.97;;;4.07;;
12474;SDS011;6302;42.624;23.334;2023-05-07T13:18:24;4.20;;;3.80;;
12474;SDS011;6302;42.624;23.334;2023-05-07T13:20:51;4.47;;;4.18;;
12474;SDS011;6302;42.624;23.334;2023-05-07T13:23:18;4.25;;;3.85;;
12474;SDS011;6302;42.624;23.334;2023-05-07T13:25:44;4.20;;;3.80;;
12474;SDS011;6302;42.624;23.334;2023-05-07T13:28:11;3.90;;;3.50;;
12474;SDS011;6302;42.624;23.334;2023-05-07T13:30:40;4.05;;;3.65;;
12474;SDS011;6302;42.624;23.334;2023-05-07T13:33:07;8.60;;;3.97;;
12474;SDS011;6302;42.624;23.334;2023-05-07T13:35:34;4.40;;;4.00;;
12474;SDS011;6302;42.624;23.334;2023-05-07T13:38:00;3.88;;;3.53;;
12474;SDS011;6302;42.624;23.334;2023-05-07T13:40:27;5.35;;;3.97;;
12474;SDS011;6302;42.624;23.334;2023-05-07T13:42:56;4.47;;;4.07;;
12474;SDS011;6302;42.624;23.334;2023-05-07T13:45:23;4.88;;;4.47;;
12474;SDS011;6302;42.624;23.334;2023-05-07T13:47:52;5.28;;;3.78;;
12474;SDS011;6302;42.624;23.334;2023-05-07T13:50:19;4.43;;;4.03;;
12474;SDS011;6302;42.624;23.334;2023-05-07T13:52:45;5.65;;;4.38;;
12474;SDS011;6302;42.624;23.334;2023-05-07T13:55:15;7.38;;;3.92;;
12474;SDS011;6302;42.624;23.334;2023-05-07T13:57:42;5.28;;;4.20;;
12474;SDS011;6302;42.624;23.334;2023-05-07T14:00:10;5.35;;;4.15;;
12474;SDS011;6302;42.624;23.334;2023-05-07T14:02:37;4.20;;;3.90;;
12474;SDS011;6302;42.624;23.334;2023-05-07T14:05:06;5.07;;;4.25;;
12474;SDS011;6302;42.624;23.334;2023-05-07T14:07:34;4.28;;;3.85;;
12474;SDS011;6302;42.624;23.334;2023-05-07T14:10:01;6.15;;;4.10;;
12474;SDS011;6302;42.624;23.334;2023-05-07T14:12:27;4.15;;;3.85;;
12474;SDS011;6302;42.624;23.334;2023-05-07T14:14:54;4.63;;;4.22;;
12474;SDS011;6302;42.624;23.334;2023-05-07T14:17:21;3.78;;;3.47;;
12474;SDS011;6302;42.624;23.334;2023-05-07T14:19:50;5.93;;;3.47;;
12474;SDS011;6302;42.624;23.334;2023-05-07T14:22:20;4.20;;;3.88;;
12474;SDS011;6302;42.624;23.334;2023-05-07T14:24:47;4.72;;;3.55;;
12474;SDS011;6302;42.624;23.334;2023-05-07T14:27:14;5.10;;;4.57;;
12474;SDS011;6302;42.624;23.334;2023-05-07T14:29:41;5.53;;;4.28;;
12474;SDS011;6302;42.624;23.334;2023-05-07T14:32:10;6.72;;;6.07;;
12474;SDS011;6302;42.624;23.334;2023-05-07T14:34:37;9.07;;;7.95;;
12474;SDS011;6302;42.624;23.334;2023-05-07T14:37:04;7.15;;;6.40;;
12474;SDS011;6302;42.624;23.334;2023-05-07T14:39:32;5.70;;;5.18;;
12474;SDS011;6302;42.624;23.334;2023-05-07T14:41:59;3.40;;;3.10;;
12474;SDS011;6302;42.624;23.334;2023-05-07T14:44:25;4.35;;;3.90;;
12474;SDS011;6302;42.624;23.334;2023-05-07T14:46:52;4.95;;;3.90;;
12474;SDS011;6302;42.624;23.334;2023-05-07T14:49:19;5.93;;;3.85;;
12474;SDS011;6302;42.624;23.334;2023-05-07T14:51:46;3.72;;;3.20;;
12474;SDS011;6302;42.624;23.334;2023-05-07T14:54:13;5.25;;;3.72;;
12474;SDS011;6302;42.624;23.334;2023-05-07T14:56:42;3.60;;;3.30;;
12474;SDS011;6302;42.624;23.334;2023-05-07T14:59:08;5.35;;;3.90;;
12474;SDS011;6302;42.624;23.334;2023-05-07T15:01:36;4.03;;;3.63;;